Sweet Valley, Pennsylvania
Current Conditions -  °F | °C
As of 3:54 PM on Thursday 27 Nov 2014 (Local Time) from KAVP Reporting Station
Overcast Overcast  
Wind Chill: 22°   Ceiling: 3400
Heat Index: 32°   Visibility: 10mi
Dew Point: 23°   Wind: 14mph
Humidity: 69%   Direction: 300°WNW
Pressure: 30.01"   Gusts: NA
Location:  41.28°N, 76.14°W
Report Text: KAVP 272054Z 30012KT 10SM OVC034 00/M05 A3001 RMK AO2 SLP171 T00001050 53012
Loading
Personal Weather Stations






























Interactive Weather Map New forecast layout! Learn more

10-Day Weather Forecast

Advertisements
Track Severe Weather on mobile